FMMI/TNR METAR and TAF weather

Enter ICAO airport designator
Station Type Date Time Source
FMMI METAR 2018/01/16 09:30 UTC NOAA

FMMI 160930Z 13009KT 090V180 9999 SCT023 24/15 Q1019 NOSIG


Station Type Date Time Source
FMMI Decoded METAR 2018/01/16 09:30 UTC NOAA

Antananarivo / Ivato, Madagascar (FMMI) 18-48S 047-29E 1276M
Jan 16, 2018 - 04:30 AM EST / 2018.01.16 0930 UTC
Wind: from the SE (130 degrees) at 10 MPH (9 KT) (direction variable):0
Visibility: greater than 7 mile(s):0
Sky conditions: partly cloudy
Temperature: 75 F (24 C)
Dew Point: 59 F (15 C)
Relative Humidity: 57%
Pressure (altimeter): 30.09 in. Hg (1019 hPa)
ob: FMMI 160930Z 13009KT 090V180 9999 SCT023 24/15 Q1019 NOSIG
cycle: 9

Station Type Date Time Source
FMMI TAF 2018/01/16 06:12 UTC NOAA

FMMI 160500Z 1606/1712 14010KT 9999 SCT017 SCT020


Example: see airport list